createdAt,value
2022-11-23T00:00:30.553Z,63.00
2022-11-23T00:01:31.129Z,70.41
2022-11-23T00:02:30.561Z,59.72
2022-11-23T00:03:30.530Z,67.24
2022-11-23T00:04:30.489Z,70.01
2022-11-23T00:05:30.487Z,71.12
2022-11-23T00:06:30.421Z,61.05
2022-11-23T00:07:30.527Z,70.37
2022-11-23T00:08:30.445Z,69.06
2022-11-23T00:09:30.819Z,69.63
2022-11-23T00:10:30.466Z,70.84
2022-11-23T00:11:30.374Z,73.76
2022-11-23T00:12:30.378Z,68.19
2022-11-23T00:13:30.356Z,70.97
2022-11-23T00:14:30.338Z,68.62
2022-11-23T00:15:31.331Z,70.35
2022-11-23T00:16:30.328Z,63.93
2022-11-23T00:17:30.314Z,70.88
2022-11-23T00:18:30.319Z,70.55
2022-11-23T00:19:31.042Z,70.82
2022-11-23T00:20:30.266Z,61.31
2022-11-23T00:21:30.286Z,67.56
2022-11-23T00:22:30.270Z,64.24
2022-11-23T00:23:30.230Z,65.99
2022-11-23T00:24:30.279Z,65.42
2022-11-23T00:25:30.219Z,72.36
2022-11-23T00:26:30.249Z,68.89
2022-11-23T00:27:30.312Z,70.84
2022-11-23T00:28:30.275Z,58.30
2022-11-23T00:29:30.575Z,72.02
2022-11-23T00:30:30.263Z,68.46
2022-11-23T00:31:30.224Z,71.99
2022-11-23T00:32:30.306Z,63.98
2022-11-23T00:33:30.189Z,72.67
2022-11-23T00:34:30.132Z,66.45
2022-11-23T00:35:30.417Z,67.24
2022-11-23T00:36:30.147Z,59.25
2022-11-23T00:37:30.299Z,70.18
2022-11-23T00:38:30.109Z,70.22
2022-11-23T00:39:30.418Z,63.05
2022-11-23T00:40:30.100Z,60.40
2022-11-23T00:41:30.261Z,56.93
2022-11-23T00:42:35.120Z,70.33
2022-11-23T00:43:31.063Z,60.48
2022-11-23T00:44:30.087Z,66.75
2022-11-23T00:45:30.049Z,61.42
2022-11-23T00:46:30.077Z,71.04
2022-11-23T00:47:30.019Z,63.85
2022-11-23T00:48:29.964Z,59.86
2022-11-23T00:49:30.266Z,63.05
2022-11-23T00:50:29.946Z,69.89
2022-11-23T00:51:30.000Z,64.14
2022-11-23T00:52:29.933Z,67.58
2022-11-23T00:53:29.988Z,69.93
2022-11-23T00:54:29.956Z,62.84
2022-11-23T00:55:29.976Z,68.40
2022-11-23T00:56:30.010Z,69.18
2022-11-23T00:57:29.924Z,65.41
2022-11-23T00:58:29.878Z,70.83
2022-11-23T00:59:30.259Z,62.42
2022-11-23T01:00:29.848Z,66.57
2022-11-23T01:01:30.876Z,64.93
2022-11-23T01:02:29.860Z,59.71
2022-11-23T01:03:29.874Z,59.91
2022-11-23T01:04:29.921Z,64.15
2022-11-23T01:05:29.783Z,68.20
2022-11-23T01:06:29.857Z,68.88
2022-11-23T01:07:29.834Z,48.93
2022-11-23T01:08:29.836Z,66.08
2022-11-23T01:09:30.116Z,70.93
2022-11-23T01:10:29.835Z,66.48
2022-11-23T01:11:29.786Z,58.84
2022-11-23T01:12:29.776Z,65.35
2022-11-23T01:13:29.692Z,58.24
2022-11-23T01:14:29.832Z,66.90
2022-11-23T01:15:29.702Z,61.81
2022-11-23T01:16:29.693Z,55.48
2022-11-23T01:17:29.697Z,65.00
2022-11-23T01:18:29.774Z,59.09
2022-11-23T01:19:30.040Z,60.69
2022-11-23T01:20:29.613Z,48.16
2022-11-23T01:21:29.633Z,50.04
2022-11-23T01:22:29.645Z,60.35
2022-11-23T01:23:29.595Z,62.65
2022-11-23T01:24:29.673Z,62.90
2022-11-23T01:25:29.601Z,67.61
2022-11-23T01:26:29.615Z,66.47
2022-11-23T01:27:29.618Z,67.72
2022-11-23T01:28:29.605Z,60.70
2022-11-23T01:29:29.838Z,59.39
2022-11-23T01:30:29.545Z,65.74
2022-11-23T01:31:29.578Z,64.92
2022-11-23T01:32:29.517Z,66.46
2022-11-23T01:33:29.511Z,68.08
2022-11-23T01:34:29.470Z,68.91
2022-11-23T01:35:29.502Z,65.19
2022-11-23T01:36:29.486Z,64.85
2022-11-23T01:37:29.423Z,66.45
2022-11-23T01:38:29.450Z,63.07
2022-11-23T01:39:29.771Z,59.85
2022-11-23T01:40:29.489Z,71.97
2022-11-23T01:41:29.427Z,66.63
2022-11-23T01:42:29.475Z,61.60
2022-11-23T01:43:29.452Z,66.10
2022-11-23T01:44:30.415Z,66.54
2022-11-23T01:45:29.334Z,57.12
2022-11-23T01:46:29.419Z,61.25
2022-11-23T01:47:29.396Z,65.54
2022-11-23T01:48:29.314Z,66.25
2022-11-23T01:49:29.566Z,59.38
2022-11-23T01:50:29.328Z,67.76
2022-11-23T01:51:29.255Z,47.33
2022-11-23T01:52:29.307Z,51.77
2022-11-23T01:53:29.296Z,67.26
2022-11-23T01:54:29.280Z,51.85
2022-11-23T01:55:29.259Z,57.95
2022-11-23T01:56:29.246Z,68.91
2022-11-23T01:57:29.297Z,70.64
2022-11-23T01:58:29.303Z,65.75
2022-11-23T01:59:29.716Z,64.74
2022-11-23T02:00:29.239Z,68.92
2022-11-23T02:01:29.236Z,70.07
2022-11-23T02:02:29.144Z,55.71
2022-11-23T02:03:29.232Z,59.78
2022-11-23T02:04:29.213Z,65.30
2022-11-23T02:05:29.232Z,69.92
2022-11-23T02:06:29.112Z,65.73
2022-11-23T02:07:29.356Z,70.03
2022-11-23T02:08:29.135Z,70.63
2022-11-23T02:09:29.481Z,62.93
2022-11-23T02:10:29.037Z,63.38
2022-11-23T02:11:29.009Z,70.40
2022-11-23T02:12:28.988Z,68.48
2022-11-23T02:13:28.992Z,67.41
2022-11-23T02:14:28.944Z,73.40
2022-11-23T02:15:28.940Z,69.50
2022-11-23T02:16:28.981Z,68.91
2022-11-23T02:17:28.933Z,62.87
2022-11-23T02:18:28.915Z,71.54
2022-11-23T02:19:29.362Z,54.88
2022-11-23T02:20:28.882Z,66.24
2022-11-23T02:21:28.901Z,68.98
2022-11-23T02:22:28.922Z,70.47
2022-11-23T02:23:28.850Z,65.53
2022-11-23T02:24:28.821Z,67.90
2022-11-23T02:25:28.873Z,70.61
2022-11-23T02:26:29.111Z,57.50
2022-11-23T02:27:28.919Z,60.05
2022-11-23T02:28:28.843Z,69.32
2022-11-23T02:29:29.061Z,67.44
2022-11-23T02:30:28.833Z,63.74
2022-11-23T02:31:28.777Z,63.84
2022-11-23T02:33:02.610Z,65.80
2022-11-23T02:33:28.835Z,62.90
2022-11-23T02:34:28.823Z,65.68
2022-11-23T02:35:28.969Z,67.37
2022-11-23T02:36:28.889Z,68.25
2022-11-23T02:37:28.782Z,70.71
2022-11-23T02:38:28.816Z,67.11
2022-11-23T02:39:29.004Z,65.80
2022-11-23T02:40:28.698Z,56.68
2022-11-23T02:41:28.786Z,73.29
2022-11-23T02:42:28.715Z,64.76
2022-11-23T02:43:28.691Z,56.83
2022-11-23T02:44:28.791Z,64.89
2022-11-23T02:45:28.706Z,69.51
2022-11-23T02:46:28.653Z,57.99
2022-11-23T02:47:28.664Z,60.74
2022-11-23T02:48:28.669Z,70.27
2022-11-23T02:49:28.665Z,71.31
2022-11-23T02:50:28.565Z,52.08
2022-11-23T02:51:28.609Z,65.20
2022-11-23T02:52:28.674Z,64.02
2022-11-23T02:53:28.534Z,59.81
2022-11-23T02:54:28.552Z,64.29
2022-11-23T02:55:28.523Z,63.06
2022-11-23T02:56:28.492Z,69.94
2022-11-23T02:57:28.502Z,70.95
2022-11-23T02:58:28.507Z,70.08
2022-11-23T02:59:28.597Z,70.69
2022-11-23T03:00:28.626Z,58.36
2022-11-23T03:01:28.418Z,68.81
2022-11-23T03:02:28.435Z,66.40
2022-11-23T03:03:28.430Z,62.87
2022-11-23T03:04:28.410Z,62.81
2022-11-23T03:05:28.472Z,63.67
2022-11-23T03:06:28.427Z,69.54
2022-11-23T03:07:28.398Z,72.79
2022-11-23T03:08:28.357Z,66.01
2022-11-23T03:09:29.310Z,63.76
2022-11-23T03:10:28.357Z,61.83
2022-11-23T03:11:28.343Z,67.74
2022-11-23T03:12:28.331Z,57.55
2022-11-23T03:13:28.297Z,70.55
2022-11-23T03:14:28.279Z,56.13
2022-11-23T03:15:28.299Z,69.21
2022-11-23T03:16:28.283Z,71.72
2022-11-23T03:17:28.322Z,69.13
2022-11-23T03:18:28.265Z,69.91
2022-11-23T03:19:28.259Z,67.16
2022-11-23T03:20:28.244Z,70.10
2022-11-23T03:21:28.289Z,70.17
2022-11-23T03:22:28.204Z,70.67
2022-11-23T03:23:28.247Z,68.59
2022-11-23T03:24:28.188Z,66.70
2022-11-23T03:25:28.228Z,61.49
2022-11-23T03:26:28.141Z,68.47
2022-11-23T03:27:28.156Z,59.30
2022-11-23T03:28:28.115Z,53.49
2022-11-23T03:29:28.121Z,71.25
2022-11-23T03:30:28.092Z,65.29
2022-11-23T03:31:28.075Z,68.96
2022-11-23T03:32:28.092Z,72.56
2022-11-23T03:33:28.109Z,72.77
2022-11-23T03:34:28.057Z,72.89
2022-11-23T03:35:29.041Z,71.64
2022-11-23T03:36:28.052Z,75.26
2022-11-23T03:37:28.056Z,73.82
2022-11-23T03:38:28.020Z,71.16
2022-11-23T03:39:28.060Z,72.11
2022-11-23T03:40:28.009Z,67.93
2022-11-23T03:41:28.004Z,69.71
2022-11-23T03:42:28.014Z,70.11
2022-11-23T03:43:27.939Z,69.59
2022-11-23T03:44:27.977Z,70.51
2022-11-23T03:45:27.966Z,66.25
2022-11-23T03:46:27.920Z,75.19
2022-11-23T03:47:28.012Z,68.19
2022-11-23T03:48:27.954Z,71.83
2022-11-23T03:49:27.881Z,74.77
2022-11-23T03:50:27.881Z,73.51
2022-11-23T03:51:27.881Z,61.88
2022-11-23T03:52:27.861Z,67.53
2022-11-23T03:53:27.872Z,74.48
2022-11-23T03:54:27.794Z,73.24
2022-11-23T03:55:27.849Z,66.79
2022-11-23T03:56:27.793Z,68.48
2022-11-23T03:57:27.746Z,64.93
2022-11-23T03:58:27.789Z,76.45
2022-11-23T03:59:27.761Z,74.65
2022-11-23T04:00:27.825Z,66.21
2022-11-23T04:01:27.750Z,71.11
2022-11-23T04:02:27.772Z,69.70
2022-11-23T04:03:27.730Z,75.71
2022-11-23T04:04:27.702Z,72.09
2022-11-23T04:05:27.715Z,74.88
2022-11-23T04:06:27.684Z,75.76
2022-11-23T04:07:27.731Z,72.54
2022-11-23T04:08:27.642Z,71.40
2022-11-23T04:09:27.650Z,70.24
2022-11-23T04:10:27.630Z,74.42
2022-11-23T04:11:27.619Z,74.49
2022-11-23T04:12:27.635Z,74.21
2022-11-23T04:13:27.624Z,72.70
2022-11-23T04:14:27.622Z,73.04
2022-11-23T04:15:27.552Z,71.73
2022-11-23T04:16:27.588Z,73.42
2022-11-23T04:17:27.573Z,72.62
2022-11-23T04:18:27.602Z,72.50
2022-11-23T04:19:27.541Z,73.97
2022-11-23T04:20:27.507Z,73.42
2022-11-23T04:21:27.512Z,72.25
2022-11-23T04:22:27.516Z,74.95
2022-11-23T04:23:27.520Z,77.46
2022-11-23T04:24:27.490Z,74.91
2022-11-23T04:25:27.482Z,74.81
2022-11-23T04:26:28.062Z,75.21
2022-11-23T04:27:27.480Z,75.33
2022-11-23T04:28:27.438Z,73.67
2022-11-23T04:29:27.416Z,75.26
2022-11-23T04:30:27.423Z,74.46
2022-11-23T04:31:27.429Z,74.01
2022-11-23T04:32:27.462Z,74.92
2022-11-23T04:33:27.394Z,75.81
2022-11-23T04:34:27.498Z,76.59
2022-11-23T04:35:27.341Z,76.32
2022-11-23T04:36:27.474Z,75.22
2022-11-23T04:37:27.359Z,78.00
2022-11-23T04:38:27.313Z,76.69
2022-11-23T04:39:28.176Z,76.84
2022-11-23T04:40:27.276Z,74.52
2022-11-23T04:41:28.051Z,74.77
2022-11-23T04:42:27.304Z,77.48
2022-11-23T04:43:27.350Z,77.13
2022-11-23T04:44:27.246Z,74.75
2022-11-23T04:45:27.228Z,76.36
2022-11-23T04:46:27.275Z,77.13
2022-11-23T04:47:27.212Z,74.90
2022-11-23T04:48:27.241Z,76.34
2022-11-23T04:49:27.225Z,77.15
2022-11-23T04:50:27.179Z,76.50
2022-11-23T04:51:27.159Z,76.49
2022-11-23T04:52:27.180Z,75.27
2022-11-23T04:53:27.109Z,77.24
2022-11-23T04:54:27.127Z,75.97
2022-11-23T04:55:27.228Z,75.26
2022-11-23T04:56:27.105Z,76.78
2022-11-23T04:57:27.115Z,77.07
2022-11-23T04:58:30.290Z,76.88
2022-11-23T04:59:27.087Z,78.43
2022-11-23T05:00:27.220Z,77.39
2022-11-23T05:01:27.128Z,76.43
2022-11-23T05:02:27.066Z,75.52
2022-11-23T05:03:27.000Z,77.62
2022-11-23T05:04:27.028Z,76.62
2022-11-23T05:05:26.984Z,77.00
2022-11-23T05:06:26.987Z,77.09
2022-11-23T05:07:27.056Z,76.10
2022-11-23T05:08:27.021Z,76.52
2022-11-23T05:09:26.923Z,77.55
2022-11-23T05:10:26.947Z,78.43
2022-11-23T05:11:26.940Z,74.32
2022-11-23T05:12:26.935Z,76.13
2022-11-23T05:13:26.946Z,78.17
2022-11-23T05:14:26.909Z,76.23
2022-11-23T05:15:26.905Z,77.99
2022-11-23T05:16:26.888Z,77.73
2022-11-23T05:17:26.903Z,75.42
2022-11-23T05:18:26.877Z,77.43
2022-11-23T05:19:26.824Z,78.35
2022-11-23T05:20:26.872Z,79.04
2022-11-23T05:21:26.798Z,77.16
2022-11-23T05:22:26.904Z,74.82
2022-11-23T05:23:26.812Z,78.32
2022-11-23T05:24:26.772Z,77.78
2022-11-23T05:25:26.773Z,76.38
2022-11-23T05:26:26.760Z,77.28
2022-11-23T05:27:26.708Z,77.59
2022-11-23T05:28:42.294Z,78.23
2022-11-23T05:29:28.752Z,77.65
2022-11-23T05:30:26.761Z,75.94
2022-11-23T05:31:26.729Z,78.31
2022-11-23T05:32:27.548Z,77.67
2022-11-23T05:33:26.696Z,79.09
2022-11-23T05:34:26.668Z,78.09
2022-11-23T05:35:26.644Z,78.38
2022-11-23T05:36:26.783Z,79.46
2022-11-23T05:37:26.633Z,80.15
2022-11-23T05:38:26.608Z,78.17
2022-11-23T05:39:26.654Z,77.46
2022-11-23T05:40:26.604Z,77.16
2022-11-23T05:41:26.610Z,78.69
2022-11-23T05:42:26.571Z,79.19
2022-11-23T05:43:26.756Z,78.84
2022-11-23T05:44:26.576Z,80.67
2022-11-23T05:45:26.586Z,80.27
2022-11-23T05:46:26.552Z,79.38
2022-11-23T05:47:26.545Z,77.94
2022-11-23T05:48:26.515Z,77.51
2022-11-23T05:49:26.511Z,80.54
2022-11-23T05:50:26.688Z,78.65
2022-11-23T05:51:26.471Z,78.45
2022-11-23T05:52:26.496Z,78.06
2022-11-23T05:53:26.520Z,78.02
2022-11-23T05:54:26.467Z,79.41
2022-11-23T05:55:26.454Z,79.19
2022-11-23T05:56:27.433Z,78.78
2022-11-23T05:57:26.449Z,77.95
2022-11-23T05:58:26.444Z,76.07
2022-11-23T05:59:26.405Z,77.52
2022-11-23T06:00:26.390Z,78.55
2022-11-23T06:01:27.133Z,77.43
2022-11-23T06:02:26.344Z,78.77
2022-11-23T06:03:26.366Z,78.67
2022-11-23T06:04:26.432Z,78.29
2022-11-23T06:05:26.308Z,77.59
2022-11-23T06:06:26.297Z,77.24
2022-11-23T06:07:26.364Z,75.87
2022-11-23T06:08:26.280Z,77.62
2022-11-23T06:09:26.260Z,76.88
2022-11-23T06:10:26.248Z,78.79
2022-11-23T06:11:26.391Z,77.85
2022-11-23T06:12:26.252Z,77.61
2022-11-23T06:13:26.220Z,76.90
2022-11-23T06:14:26.213Z,78.11
2022-11-23T06:15:26.354Z,78.77
2022-11-23T06:16:26.284Z,78.99
2022-11-23T06:17:26.243Z,79.34
2022-11-23T06:18:27.117Z,78.16
2022-11-23T06:19:26.142Z,75.92
2022-11-23T06:20:26.141Z,79.69
2022-11-23T06:21:26.161Z,78.32
2022-11-23T06:22:26.169Z,78.99
2022-11-23T06:23:26.637Z,78.05
2022-11-23T06:24:26.175Z,78.19
2022-11-23T06:25:26.177Z,77.75
2022-11-23T06:26:26.140Z,78.89
2022-11-23T06:27:26.063Z,78.94
2022-11-23T06:28:26.033Z,78.10
2022-11-23T06:29:26.098Z,78.19
2022-11-23T06:30:26.211Z,79.91
2022-11-23T06:31:26.674Z,78.73
2022-11-23T06:32:26.060Z,77.58
2022-11-23T06:33:25.970Z,77.09
2022-11-23T06:34:26.022Z,78.70
2022-11-23T06:35:25.986Z,80.07
2022-11-23T06:36:25.961Z,78.79
2022-11-23T06:37:25.960Z,80.27
2022-11-23T06:38:26.081Z,78.74
2022-11-23T06:39:25.928Z,79.73
2022-11-23T06:40:25.934Z,77.52
2022-11-23T06:41:30.873Z,77.76
2022-11-23T06:42:42.301Z,79.54
2022-11-23T06:43:27.891Z,77.37
2022-11-23T06:44:25.854Z,77.45
2022-11-23T06:45:25.844Z,79.33
2022-11-23T06:46:25.956Z,79.40
2022-11-23T06:47:26.657Z,76.39
2022-11-23T06:48:26.802Z,78.71
2022-11-23T06:49:25.792Z,79.48
2022-11-23T06:50:25.779Z,78.33
2022-11-23T06:51:25.846Z,77.45
2022-11-23T06:52:25.781Z,77.96
2022-11-23T06:53:25.742Z,78.80
2022-11-23T06:54:27.476Z,77.63
2022-11-23T06:55:25.730Z,79.35
2022-11-23T06:56:25.778Z,77.23
2022-11-23T06:57:25.767Z,77.58
2022-11-23T06:58:26.674Z,78.87
2022-11-23T06:59:25.721Z,78.59
2022-11-23T07:00:25.798Z,77.78
2022-11-23T07:01:25.712Z,78.86
2022-11-23T07:02:25.686Z,76.29
2022-11-23T07:03:26.737Z,77.70
2022-11-23T07:04:25.642Z,76.16
2022-11-23T07:05:25.679Z,78.76
2022-11-23T07:06:25.669Z,75.79
2022-11-23T07:07:25.644Z,77.94
2022-11-23T07:08:25.590Z,77.10
2022-11-23T07:09:25.554Z,76.53
2022-11-23T07:10:25.709Z,78.32
2022-11-23T07:11:25.637Z,75.93
2022-11-23T07:12:25.556Z,78.15
2022-11-23T07:13:25.534Z,78.81
2022-11-23T07:14:25.619Z,76.38
2022-11-23T07:15:25.595Z,77.37
2022-11-23T07:16:26.188Z,77.48
2022-11-23T07:17:25.507Z,78.59
2022-11-23T07:18:25.471Z,77.19
2022-11-23T07:19:25.488Z,77.17
2022-11-23T07:20:25.466Z,77.05
2022-11-23T07:21:26.172Z,78.36
2022-11-23T07:22:25.512Z,77.61
2022-11-23T07:23:25.438Z,78.26
2022-11-23T07:24:25.440Z,77.70
2022-11-23T07:25:25.484Z,75.44
2022-11-23T07:26:25.404Z,77.93
2022-11-23T07:27:25.403Z,76.29
2022-11-23T07:28:25.429Z,76.69
2022-11-23T07:29:25.417Z,77.10
2022-11-23T07:30:29.290Z,78.78
2022-11-23T07:31:26.371Z,76.52
2022-11-23T07:32:25.340Z,75.73
2022-11-23T07:33:25.317Z,78.45
2022-11-23T07:34:25.345Z,77.42
2022-11-23T07:35:25.338Z,76.57
2022-11-23T07:36:25.289Z,78.71
2022-11-23T07:37:25.257Z,76.59
2022-11-23T07:38:25.273Z,78.41
2022-11-23T07:39:36.606Z,77.06
2022-11-23T07:40:27.245Z,78.30
2022-11-23T07:41:25.266Z,78.93
2022-11-23T07:42:33.602Z,77.52
2022-11-23T07:43:27.220Z,78.03
2022-11-23T07:44:25.204Z,77.91
2022-11-23T07:45:25.213Z,77.66
2022-11-23T07:46:25.170Z,77.00
2022-11-23T07:47:26.150Z,78.90
2022-11-23T07:48:25.133Z,77.84
2022-11-23T07:49:25.179Z,77.33
2022-11-23T07:50:25.102Z,77.25
2022-11-23T07:51:25.149Z,77.54
2022-11-23T07:52:25.123Z,78.09
2022-11-23T07:53:25.067Z,77.82
2022-11-23T07:54:25.100Z,76.74
2022-11-23T07:55:25.023Z,75.63
2022-11-23T07:56:25.064Z,77.47
2022-11-23T07:57:25.115Z,77.10
2022-11-23T07:58:25.035Z,78.76
2022-11-23T07:59:25.042Z,76.64
2022-11-23T08:00:25.072Z,76.08
2022-11-23T08:01:24.999Z,78.71
2022-11-23T08:02:25.018Z,76.81
2022-11-23T08:03:29.025Z,76.83
2022-11-23T08:04:25.965Z,76.88
2022-11-23T08:05:25.037Z,78.13
2022-11-23T08:06:24.931Z,78.66
2022-11-23T08:07:24.993Z,78.73
2022-11-23T08:08:24.943Z,78.47
2022-11-23T08:09:24.923Z,78.50
2022-11-23T08:10:24.953Z,80.64
2022-11-23T08:11:24.882Z,78.74
2022-11-23T08:12:24.865Z,77.44
2022-11-23T08:13:24.840Z,76.07
2022-11-23T08:14:24.833Z,75.00
2022-11-23T08:15:24.854Z,77.85
2022-11-23T08:16:24.827Z,76.45
2022-11-23T08:17:24.822Z,75.85
2022-11-23T08:18:24.803Z,76.74
2022-11-23T08:19:24.803Z,75.22
2022-11-23T08:20:24.911Z,76.53
2022-11-23T08:21:24.747Z,77.92
2022-11-23T08:22:24.775Z,78.14
2022-11-23T08:23:24.721Z,78.81
2022-11-23T08:24:24.701Z,77.92
2022-11-23T08:25:24.742Z,76.32
2022-11-23T08:26:24.705Z,76.97
2022-11-23T08:27:24.712Z,77.58
2022-11-23T08:28:24.792Z,75.73
2022-11-23T08:29:24.660Z,78.22
2022-11-23T08:30:24.833Z,77.90
2022-11-23T08:31:24.708Z,75.98
2022-11-23T08:32:24.645Z,74.36
2022-11-23T08:33:24.651Z,76.95
2022-11-23T08:34:24.895Z,77.55
2022-11-23T08:35:24.636Z,77.05
2022-11-23T08:36:24.607Z,77.32
2022-11-23T08:37:25.175Z,76.59
2022-11-23T08:38:24.619Z,77.45
2022-11-23T08:39:24.530Z,78.16
2022-11-23T08:40:25.775Z,75.40
2022-11-23T08:41:25.620Z,76.30
2022-11-23T08:42:24.516Z,76.91
2022-11-23T08:43:24.538Z,77.53
2022-11-23T08:44:24.577Z,75.66
2022-11-23T08:45:24.542Z,78.22
2022-11-23T08:46:24.459Z,75.78
2022-11-23T08:47:24.505Z,75.61
2022-11-23T08:48:24.483Z,77.89
2022-11-23T08:49:24.549Z,76.12
2022-11-23T08:50:24.517Z,78.40
2022-11-23T08:51:24.413Z,78.51
2022-11-23T08:52:24.436Z,77.64
2022-11-23T08:53:24.494Z,75.16
2022-11-23T08:54:24.388Z,75.47
2022-11-23T08:55:24.423Z,76.84
2022-11-23T08:56:24.366Z,78.46
2022-11-23T08:57:24.364Z,77.61
2022-11-23T08:58:24.374Z,76.08
2022-11-23T08:59:24.406Z,77.65
2022-11-23T09:00:24.346Z,78.26
2022-11-23T09:01:24.339Z,75.99
2022-11-23T09:02:24.335Z,77.37
2022-11-23T09:03:24.334Z,77.55
2022-11-23T09:04:24.284Z,74.07
2022-11-23T09:05:24.297Z,74.24
2022-11-23T09:06:24.266Z,76.34
2022-11-23T09:07:24.318Z,75.07
2022-11-23T09:08:24.264Z,76.02
2022-11-23T09:09:24.227Z,76.21
2022-11-23T09:10:24.299Z,79.75
2022-11-23T09:11:24.691Z,76.75
2022-11-23T09:12:24.207Z,77.78
2022-11-23T09:13:24.175Z,75.44
2022-11-23T09:14:24.192Z,76.00
2022-11-23T09:15:24.149Z,76.55
2022-11-23T09:16:24.196Z,77.54
2022-11-23T09:17:24.140Z,77.48
2022-11-23T09:18:24.153Z,77.20
2022-11-23T09:19:24.082Z,78.28
2022-11-23T09:20:24.084Z,76.92
2022-11-23T09:21:24.159Z,78.93
2022-11-23T09:22:24.106Z,75.49
2022-11-23T09:23:24.094Z,78.99
2022-11-23T09:24:24.101Z,76.37
2022-11-23T09:25:24.028Z,76.64
2022-11-23T09:26:24.044Z,75.36
2022-11-23T09:27:24.136Z,76.36
2022-11-23T09:28:24.017Z,77.14
2022-11-23T09:29:24.020Z,75.70
2022-11-23T09:30:24.038Z,75.48
2022-11-23T09:31:23.998Z,76.83
2022-11-23T09:32:23.978Z,76.17
2022-11-23T09:33:23.975Z,77.48
2022-11-23T09:34:24.001Z,77.70
2022-11-23T09:35:23.948Z,75.31
2022-11-23T09:36:23.927Z,78.14
2022-11-23T09:37:23.885Z,75.78
2022-11-23T09:38:44.462Z,78.79
2022-11-23T09:39:24.912Z,76.74
2022-11-23T09:40:23.994Z,77.37
2022-11-23T09:41:23.868Z,76.61
2022-11-23T09:42:23.848Z,77.29
2022-11-23T09:43:23.892Z,76.08
2022-11-23T09:44:23.844Z,74.86
2022-11-23T09:45:23.842Z,77.14
2022-11-23T09:46:23.856Z,78.75
2022-11-23T09:47:23.840Z,77.69
2022-11-23T09:48:23.994Z,77.59
2022-11-23T09:49:23.799Z,78.00
2022-11-23T09:50:23.779Z,77.08
2022-11-23T09:51:23.770Z,75.88
2022-11-23T09:52:23.780Z,76.50
2022-11-23T09:53:23.897Z,74.85
2022-11-23T09:54:23.787Z,78.48
2022-11-23T09:55:23.719Z,76.51
2022-11-23T09:56:23.699Z,74.77
2022-11-23T09:57:23.682Z,76.15
2022-11-23T09:58:23.723Z,77.32
2022-11-23T09:59:23.658Z,77.31
2022-11-23T10:00:23.662Z,77.07
2022-11-23T10:01:23.690Z,77.04
2022-11-23T10:02:23.673Z,77.79
2022-11-23T10:03:23.631Z,76.81
2022-11-23T10:04:23.611Z,78.70
2022-11-23T10:05:23.610Z,77.54
2022-11-23T10:06:23.696Z,77.34
2022-11-23T10:07:23.640Z,74.47
2022-11-23T10:08:23.568Z,76.97
2022-11-23T10:09:23.667Z,74.80
2022-11-23T10:10:23.598Z,77.70
2022-11-23T10:11:23.638Z,77.56
2022-11-23T10:12:23.620Z,78.32
2022-11-23T10:13:23.600Z,76.42
2022-11-23T10:14:23.544Z,77.03
2022-11-23T10:15:23.543Z,78.80
2022-11-23T10:16:23.575Z,74.88
2022-11-23T10:17:23.615Z,75.31
2022-11-23T10:18:23.447Z,75.70
2022-11-23T10:19:23.512Z,76.45
2022-11-23T10:20:23.501Z,76.31
2022-11-23T10:21:23.479Z,76.45
2022-11-23T10:22:23.504Z,75.43
2022-11-23T10:23:23.507Z,77.69
2022-11-23T10:24:23.442Z,77.72
2022-11-23T10:25:23.442Z,77.50
2022-11-23T10:26:23.397Z,78.03
2022-11-23T10:27:23.441Z,76.72
2022-11-23T10:28:23.381Z,74.98
2022-11-23T10:29:23.498Z,78.54
2022-11-23T10:30:23.361Z,77.01
2022-11-23T10:31:23.450Z,77.52
2022-11-23T10:32:24.190Z,76.04
2022-11-23T10:33:23.342Z,78.17
2022-11-23T10:34:23.294Z,78.09
2022-11-23T10:35:23.387Z,78.91
2022-11-23T10:36:23.300Z,77.78
2022-11-23T10:37:23.347Z,76.48
2022-11-23T10:38:23.323Z,77.76
2022-11-23T10:39:23.262Z,76.21
2022-11-23T10:40:23.343Z,79.52
2022-11-23T10:41:24.228Z,77.71
2022-11-23T10:42:23.224Z,76.44
2022-11-23T10:43:23.244Z,78.58
2022-11-23T10:44:23.196Z,78.46
2022-11-23T10:45:23.172Z,77.56
2022-11-23T10:46:23.172Z,76.12
2022-11-23T10:47:23.201Z,75.28
2022-11-23T10:48:23.198Z,78.97
2022-11-23T10:49:23.190Z,76.84
2022-11-23T10:50:23.164Z,77.69
2022-11-23T10:51:23.153Z,77.74
2022-11-23T10:52:23.115Z,76.54
2022-11-23T10:53:23.134Z,78.29
2022-11-23T10:54:23.271Z,76.48
2022-11-23T10:55:23.082Z,77.80
2022-11-23T10:56:23.051Z,76.15
2022-11-23T10:57:23.108Z,76.96
2022-11-23T10:58:23.018Z,77.60
2022-11-23T10:59:23.039Z,76.73
2022-11-23T11:00:28.729Z,78.17
2022-11-23T11:01:25.003Z,75.88
2022-11-23T11:02:22.959Z,76.68
2022-11-23T11:03:23.042Z,78.26
2022-11-23T11:04:23.005Z,76.06
2022-11-23T11:05:35.474Z,75.45
2022-11-23T11:06:23.953Z,76.40
2022-11-23T11:07:23.127Z,77.04
2022-11-23T11:08:22.939Z,78.18
2022-11-23T11:09:22.920Z,78.07
2022-11-23T11:10:22.877Z,76.68
2022-11-23T11:11:22.908Z,78.17
2022-11-23T11:12:22.876Z,76.89
2022-11-23T11:13:22.916Z,77.08
2022-11-23T11:14:22.948Z,77.96
2022-11-23T11:15:22.833Z,77.09
2022-11-23T11:16:22.828Z,77.10
2022-11-23T11:17:22.845Z,77.05
2022-11-23T11:18:22.800Z,76.90
2022-11-23T11:19:22.857Z,77.29
2022-11-23T11:20:22.808Z,78.27
2022-11-23T11:21:22.752Z,78.54
2022-11-23T11:22:22.721Z,77.38
2022-11-23T11:23:22.717Z,79.71
2022-11-23T11:24:22.773Z,76.32
2022-11-23T11:25:22.765Z,76.39
2022-11-23T11:26:22.684Z,79.07
2022-11-23T11:27:22.705Z,77.41
2022-11-23T11:28:22.737Z,78.18
2022-11-23T11:29:22.699Z,77.92
2022-11-23T11:30:22.701Z,77.56
2022-11-23T11:31:22.636Z,76.14
2022-11-23T11:32:22.695Z,77.68
2022-11-23T11:33:22.610Z,77.59
2022-11-23T11:34:22.632Z,79.43
2022-11-23T11:35:22.716Z,78.99
2022-11-23T11:36:22.624Z,76.83
2022-11-23T11:37:22.601Z,77.95
2022-11-23T11:38:22.613Z,77.01
2022-11-23T11:39:22.589Z,78.58
2022-11-23T11:40:22.542Z,76.57
2022-11-23T11:41:22.604Z,75.78
2022-11-23T11:42:22.552Z,75.23
2022-11-23T11:43:29.248Z,78.80
2022-11-23T11:44:24.553Z,74.87
2022-11-23T11:45:22.518Z,77.89
2022-11-23T11:46:30.348Z,77.77
2022-11-23T11:47:24.525Z,77.63
2022-11-23T11:48:22.474Z,77.17
2022-11-23T11:49:22.451Z,76.04
2022-11-23T11:50:27.123Z,76.72
2022-11-23T11:51:23.576Z,75.06
2022-11-23T11:52:22.454Z,76.43
2022-11-23T11:53:22.543Z,76.98
2022-11-23T11:54:22.462Z,78.33
2022-11-23T11:55:22.410Z,77.33
2022-11-23T11:56:22.467Z,77.36
2022-11-23T11:57:22.455Z,78.18
2022-11-23T11:58:22.373Z,76.16
2022-11-23T11:59:22.460Z,76.89
2022-11-23T12:00:22.359Z,77.77
2022-11-23T12:01:22.480Z,77.54
2022-11-23T12:02:22.315Z,77.59
2022-11-23T12:03:22.315Z,78.10
2022-11-23T12:04:22.466Z,76.50
2022-11-23T12:05:22.337Z,76.10
2022-11-23T12:06:26.535Z,77.95
2022-11-23T12:07:22.347Z,77.42
2022-11-23T12:08:23.135Z,78.26
2022-11-23T12:09:22.315Z,78.71
2022-11-23T12:10:22.208Z,76.96
2022-11-23T12:11:22.210Z,77.34
2022-11-23T12:12:28.203Z,76.59
2022-11-23T12:13:24.193Z,74.87
2022-11-23T12:14:22.204Z,76.18
2022-11-23T12:15:51.138Z,79.43
2022-11-23T12:16:24.135Z,77.16
2022-11-23T12:17:32.895Z,77.12
2022-11-23T12:18:24.161Z,78.34
2022-11-23T12:19:22.106Z,76.75
2022-11-23T12:20:22.135Z,76.44
2022-11-23T12:21:22.146Z,77.51
2022-11-23T12:22:22.085Z,79.08
2022-11-23T12:23:22.068Z,76.89
2022-11-23T12:24:22.095Z,79.75
2022-11-23T12:25:22.082Z,78.06
2022-11-23T12:26:22.047Z,79.67
2022-11-23T12:27:22.046Z,77.05
2022-11-23T12:28:21.996Z,78.51
2022-11-23T12:29:22.001Z,76.81
2022-11-23T12:30:22.021Z,78.32
2022-11-23T12:31:22.017Z,79.50
2022-11-23T12:32:21.935Z,75.63
2022-11-23T12:33:21.989Z,77.18
2022-11-23T12:34:22.010Z,77.31
2022-11-23T12:35:21.928Z,74.77
2022-11-23T12:36:23.769Z,77.61
2022-11-23T12:37:22.951Z,77.56
2022-11-23T12:38:21.956Z,77.88
2022-11-23T12:39:21.902Z,77.23
2022-11-23T12:40:21.996Z,78.40
2022-11-23T12:41:21.907Z,77.43
2022-11-23T12:42:21.944Z,77.40
2022-11-23T12:43:21.849Z,77.15
2022-11-23T12:44:21.857Z,76.35
2022-11-23T12:45:21.848Z,77.84
2022-11-23T12:46:21.878Z,77.59
2022-11-23T12:47:22.655Z,79.75
2022-11-23T12:48:21.775Z,78.26
2022-11-23T12:49:21.810Z,79.32
2022-11-23T12:50:21.763Z,78.96
2022-11-23T12:51:21.814Z,77.14
2022-11-23T12:52:22.015Z,77.22